aviador You're here:

KWLD Decoded Metar

WINFIELD/ARKANSA in KS, USA
Report Time2017-07-21 07:54:00
UTC Time2017-07-21 08:41:46
Flight Rules vfr VFR
Wind180° at 07 kt
W.Decomp.*RWY 17: 7.0 kt HW 0.5 kt RCW
RWY 13: 5.0 kt HW 4.9 kt RCW
W.Rank180° ranks 3
Current wind is below 180° avg. (11.6)
Visibility9999 m
Phenomena:N/A
Clouds:N/A
Expected CloudBase > 2,400 ft AGL from Temp-Dew spread
CeilingNone
Temp27°C (ISA +14)
Dew Point21°C (70% RH)
Heat Index28.9°C
QNH1015 hPa
Density Alt3,058 ft
Elevation1,148 ft
Report Wrong Elevation
Raw Report
KWLD 210754Z AUTO 18007KT 10SM CLR 27/21 A2998 RMK AO2 SLP136
T02670211=

Extra information for KWLD:More info

Metar Taf Metar & Taf Last 4 Metars F.Rules Stats Wind Profile Meteogram Temp Stats Airport Information Weather charts Add Link Nearby VenuesMetar ALERT Operation Metar Decoded Social comments

AIRNAV info for KWLD